sensor_id;sensor_type;location;lat;lon;timestamp;P1;durP1;ratioP1;P2;durP2;ratioP2
80157;SDS011;69485;59.138;37.926;2023-05-16T00:02:27;16.55;;;5.43;;
80157;SDS011;69485;59.138;37.926;2023-05-16T00:04:59;11.55;;;4.65;;
80157;SDS011;69485;59.138;37.926;2023-05-16T00:07:29;11.60;;;4.68;;
80157;SDS011;69485;59.138;37.926;2023-05-16T00:10:01;15.52;;;5.43;;
80157;SDS011;69485;59.138;37.926;2023-05-16T00:12:33;12.35;;;5.85;;
80157;SDS011;69485;59.138;37.926;2023-05-16T00:15:08;11.07;;;5.32;;
80157;SDS011;69485;59.138;37.926;2023-05-16T00:17:42;13.93;;;5.03;;
80157;SDS011;69485;59.138;37.926;2023-05-16T00:20:16;19.50;;;5.75;;
80157;SDS011;69485;59.138;37.926;2023-05-16T00:22:53;13.38;;;5.88;;
80157;SDS011;69485;59.138;37.926;2023-05-16T00:25:24;19.35;;;5.75;;
80157;SDS011;69485;59.138;37.926;2023-05-16T00:27:55;14.23;;;5.63;;
80157;SDS011;69485;59.138;37.926;2023-05-16T00:30:28;15.98;;;5.88;;
80157;SDS011;69485;59.138;37.926;2023-05-16T00:32:59;12.60;;;5.22;;
80157;SDS011;69485;59.138;37.926;2023-05-16T00:35:31;15.10;;;5.68;;
80157;SDS011;69485;59.138;37.926;2023-05-16T00:38:02;17.02;;;5.60;;
80157;SDS011;69485;59.138;37.926;2023-05-16T00:40:33;13.82;;;5.95;;
80157;SDS011;69485;59.138;37.926;2023-05-16T00:43:04;17.52;;;6.10;;
80157;SDS011;69485;59.138;37.926;2023-05-16T00:45:35;19.27;;;5.93;;
80157;SDS011;69485;59.138;37.926;2023-05-16T00:48:06;13.90;;;5.47;;
80157;SDS011;69485;59.138;37.926;2023-05-16T00:50:39;16.13;;;4.93;;
80157;SDS011;69485;59.138;37.926;2023-05-16T00:53:10;11.55;;;5.30;;
80157;SDS011;69485;59.138;37.926;2023-05-16T00:55:41;16.40;;;5.60;;
80157;SDS011;69485;59.138;37.926;2023-05-16T00:58:12;9.98;;;4.43;;
80157;SDS011;69485;59.138;37.926;2023-05-16T01:00:44;19.60;;;4.95;;
80157;SDS011;69485;59.138;37.926;2023-05-16T01:03:17;10.43;;;5.15;;
80157;SDS011;69485;59.138;37.926;2023-05-16T01:05:48;11.10;;;4.35;;
80157;SDS011;69485;59.138;37.926;2023-05-16T01:08:19;13.52;;;4.78;;
80157;SDS011;69485;59.138;37.926;2023-05-16T01:11:11;13.90;;;4.72;;
80157;SDS011;69485;59.138;37.926;2023-05-16T01:13:54;11.73;;;4.70;;
80157;SDS011;69485;59.138;37.926;2023-05-16T01:16:53;9.75;;;4.40;;
80157;SDS011;69485;59.138;37.926;2023-05-16T01:22:15;9.32;;;4.25;;
80157;SDS011;69485;59.138;37.926;2023-05-16T01:27:32;12.02;;;4.75;;
80157;SDS011;69485;59.138;37.926;2023-05-16T01:30:17;14.85;;;5.18;;
80157;SDS011;69485;59.138;37.926;2023-05-16T01:32:49;17.67;;;5.30;;
80157;SDS011;69485;59.138;37.926;2023-05-16T01:35:21;10.43;;;4.38;;
80157;SDS011;69485;59.138;37.926;2023-05-16T01:40:54;14.23;;;5.28;;
80157;SDS011;69485;59.138;37.926;2023-05-16T01:43:32;12.60;;;5.18;;
80157;SDS011;69485;59.138;37.926;2023-05-16T01:46:14;16.40;;;5.22;;
80157;SDS011;69485;59.138;37.926;2023-05-16T01:48:53;14.00;;;5.10;;
80157;SDS011;69485;59.138;37.926;2023-05-16T01:51:28;15.98;;;6.03;;
80157;SDS011;69485;59.138;37.926;2023-05-16T01:54:04;12.48;;;5.90;;
80157;SDS011;69485;59.138;37.926;2023-05-16T01:56:38;13.20;;;5.25;;
80157;SDS011;69485;59.138;37.926;2023-05-16T01:59:15;15.68;;;5.38;;
80157;SDS011;69485;59.138;37.926;2023-05-16T02:01:47;9.75;;;5.22;;
80157;SDS011;69485;59.138;37.926;2023-05-16T02:04:19;12.82;;;5.85;;
80157;SDS011;69485;59.138;37.926;2023-05-16T02:06:50;16.40;;;5.38;;
80157;SDS011;69485;59.138;37.926;2023-05-16T02:09:21;13.40;;;5.07;;
80157;SDS011;69485;59.138;37.926;2023-05-16T02:11:53;15.40;;;5.75;;
80157;SDS011;69485;59.138;37.926;2023-05-16T02:14:23;12.82;;;5.57;;
80157;SDS011;69485;59.138;37.926;2023-05-16T02:16:56;12.02;;;5.05;;
80157;SDS011;69485;59.138;37.926;2023-05-16T02:19:26;12.13;;;5.30;;
80157;SDS011;69485;59.138;37.926;2023-05-16T02:21:57;17.80;;;5.75;;
80157;SDS011;69485;59.138;37.926;2023-05-16T02:24:28;16.33;;;6.38;;
80157;SDS011;69485;59.138;37.926;2023-05-16T02:26:59;19.13;;;5.57;;
80157;SDS011;69485;59.138;37.926;2023-05-16T02:29:30;13.85;;;5.40;;
80157;SDS011;69485;59.138;37.926;2023-05-16T02:32:01;11.77;;;5.70;;
80157;SDS011;69485;59.138;37.926;2023-05-16T02:34:32;14.35;;;6.57;;
80157;SDS011;69485;59.138;37.926;2023-05-16T02:37:03;13.25;;;5.30;;
80157;SDS011;69485;59.138;37.926;2023-05-16T02:39:35;15.43;;;4.85;;
80157;SDS011;69485;59.138;37.926;2023-05-16T02:42:06;12.57;;;5.32;;
80157;SDS011;69485;59.138;37.926;2023-05-16T02:44:37;10.57;;;4.57;;
80157;SDS011;69485;59.138;37.926;2023-05-16T02:47:08;13.48;;;4.32;;
80157;SDS011;69485;59.138;37.926;2023-05-16T02:49:39;10.40;;;5.45;;
80157;SDS011;69485;59.138;37.926;2023-05-16T02:52:09;10.65;;;4.85;;
80157;SDS011;69485;59.138;37.926;2023-05-16T02:54:42;13.82;;;4.57;;
80157;SDS011;69485;59.138;37.926;2023-05-16T02:57:13;14.35;;;5.07;;
80157;SDS011;69485;59.138;37.926;2023-05-16T02:59:43;8.65;;;4.07;;
80157;SDS011;69485;59.138;37.926;2023-05-16T03:02:14;14.77;;;5.18;;
80157;SDS011;69485;59.138;37.926;2023-05-16T03:04:45;13.88;;;4.93;;
80157;SDS011;69485;59.138;37.926;2023-05-16T03:07:16;9.40;;;4.78;;
80157;SDS011;69485;59.138;37.926;2023-05-16T03:09:47;12.32;;;5.20;;
80157;SDS011;69485;59.138;37.926;2023-05-16T03:12:18;16.23;;;4.70;;
80157;SDS011;69485;59.138;37.926;2023-05-16T03:14:49;13.32;;;6.50;;
80157;SDS011;69485;59.138;37.926;2023-05-16T03:17:21;15.77;;;6.88;;
80157;SDS011;69485;59.138;37.926;2023-05-16T03:19:52;17.17;;;7.70;;
80157;SDS011;69485;59.138;37.926;2023-05-16T03:22:23;23.20;;;8.20;;
80157;SDS011;69485;59.138;37.926;2023-05-16T03:24:54;28.40;;;8.40;;
80157;SDS011;69485;59.138;37.926;2023-05-16T03:27:25;26.77;;;8.27;;
80157;SDS011;69485;59.138;37.926;2023-05-16T03:29:56;18.95;;;8.90;;
80157;SDS011;69485;59.138;37.926;2023-05-16T03:32:27;23.63;;;10.90;;
80157;SDS011;69485;59.138;37.926;2023-05-16T03:34:58;24.58;;;10.70;;
80157;SDS011;69485;59.138;37.926;2023-05-16T03:37:28;32.58;;;11.98;;
80157;SDS011;69485;59.138;37.926;2023-05-16T03:40:00;26.05;;;11.05;;
80157;SDS011;69485;59.138;37.926;2023-05-16T03:42:30;22.33;;;10.07;;
80157;SDS011;69485;59.138;37.926;2023-05-16T03:45:03;31.80;;;10.95;;
80157;SDS011;69485;59.138;37.926;2023-05-16T03:47:37;32.50;;;10.00;;
80157;SDS011;69485;59.138;37.926;2023-05-16T03:50:08;26.35;;;9.02;;
80157;SDS011;69485;59.138;37.926;2023-05-16T03:52:39;23.50;;;8.43;;
80157;SDS011;69485;59.138;37.926;2023-05-16T03:55:10;23.92;;;9.05;;
80157;SDS011;69485;59.138;37.926;2023-05-16T03:57:44;21.88;;;8.32;;
80157;SDS011;69485;59.138;37.926;2023-05-16T04:00:15;23.20;;;8.15;;
80157;SDS011;69485;59.138;37.926;2023-05-16T04:02:46;19.08;;;8.45;;
80157;SDS011;69485;59.138;37.926;2023-05-16T04:05:17;15.48;;;8.93;;
80157;SDS011;69485;59.138;37.926;2023-05-16T04:07:49;18.17;;;8.02;;
80157;SDS011;69485;59.138;37.926;2023-05-16T04:10:20;15.80;;;8.10;;
80157;SDS011;69485;59.138;37.926;2023-05-16T04:12:52;20.45;;;8.13;;
80157;SDS011;69485;59.138;37.926;2023-05-16T04:15:22;17.27;;;8.10;;
80157;SDS011;69485;59.138;37.926;2023-05-16T04:17:53;18.35;;;8.27;;
80157;SDS011;69485;59.138;37.926;2023-05-16T04:20:24;24.42;;;9.05;;
80157;SDS011;69485;59.138;37.926;2023-05-16T04:22:55;20.27;;;9.27;;
80157;SDS011;69485;59.138;37.926;2023-05-16T04:25:26;16.45;;;8.52;;
80157;SDS011;69485;59.138;37.926;2023-05-16T04:27:57;17.42;;;9.43;;
80157;SDS011;69485;59.138;37.926;2023-05-16T04:30:28;16.65;;;8.23;;
80157;SDS011;69485;59.138;37.926;2023-05-16T04:32:59;22.92;;;9.50;;
80157;SDS011;69485;59.138;37.926;2023-05-16T04:35:30;22.75;;;10.25;;
80157;SDS011;69485;59.138;37.926;2023-05-16T04:38:01;24.95;;;10.35;;
80157;SDS011;69485;59.138;37.926;2023-05-16T04:40:32;22.67;;;10.65;;
80157;SDS011;69485;59.138;37.926;2023-05-16T04:43:03;20.63;;;9.35;;
80157;SDS011;69485;59.138;37.926;2023-05-16T04:45:34;20.17;;;10.48;;
80157;SDS011;69485;59.138;37.926;2023-05-16T04:48:05;17.98;;;7.80;;
80157;SDS011;69485;59.138;37.926;2023-05-16T04:50:36;18.50;;;7.28;;
80157;SDS011;69485;59.138;37.926;2023-05-16T04:53:07;14.98;;;6.53;;
80157;SDS011;69485;59.138;37.926;2023-05-16T04:55:38;17.83;;;5.28;;
80157;SDS011;69485;59.138;37.926;2023-05-16T04:58:09;8.82;;;4.75;;
80157;SDS011;69485;59.138;37.926;2023-05-16T05:00:40;7.38;;;3.92;;
80157;SDS011;69485;59.138;37.926;2023-05-16T05:03:11;13.18;;;4.05;;
80157;SDS011;69485;59.138;37.926;2023-05-16T05:05:42;8.80;;;3.65;;
80157;SDS011;69485;59.138;37.926;2023-05-16T05:08:13;13.57;;;4.07;;
80157;SDS011;69485;59.138;37.926;2023-05-16T05:10:44;5.95;;;3.10;;
80157;SDS011;69485;59.138;37.926;2023-05-16T05:13:15;9.02;;;2.65;;
80157;SDS011;69485;59.138;37.926;2023-05-16T05:15:46;10.73;;;3.53;;
80157;SDS011;69485;59.138;37.926;2023-05-16T05:18:17;5.47;;;3.15;;
80157;SDS011;69485;59.138;37.926;2023-05-16T05:20:48;7.63;;;3.00;;
80157;SDS011;69485;59.138;37.926;2023-05-16T05:23:20;7.53;;;2.95;;
80157;SDS011;69485;59.138;37.926;2023-05-16T05:25:51;4.30;;;2.22;;
80157;SDS011;69485;59.138;37.926;2023-05-16T05:28:22;5.80;;;2.30;;
80157;SDS011;69485;59.138;37.926;2023-05-16T05:30:53;6.15;;;1.90;;
80157;SDS011;69485;59.138;37.926;2023-05-16T05:33:27;5.75;;;1.50;;
80157;SDS011;69485;59.138;37.926;2023-05-16T05:35:59;3.70;;;1.45;;
80157;SDS011;69485;59.138;37.926;2023-05-16T05:38:30;4.82;;;1.58;;
80157;SDS011;69485;59.138;37.926;2023-05-16T05:41:01;1.80;;;1.17;;
80157;SDS011;69485;59.138;37.926;2023-05-16T05:43:32;2.10;;;1.38;;
80157;SDS011;69485;59.138;37.926;2023-05-16T05:46:04;4.00;;;1.40;;
80157;SDS011;69485;59.138;37.926;2023-05-16T05:48:35;2.17;;;1.10;;
80157;SDS011;69485;59.138;37.926;2023-05-16T05:51:06;5.35;;;1.20;;
80157;SDS011;69485;59.138;37.926;2023-05-16T05:53:36;2.22;;;1.20;;
80157;SDS011;69485;59.138;37.926;2023-05-16T05:56:08;2.97;;;1.15;;
80157;SDS011;69485;59.138;37.926;2023-05-16T05:58:39;2.60;;;1.33;;
80157;SDS011;69485;59.138;37.926;2023-05-16T06:01:11;3.70;;;1.52;;
80157;SDS011;69485;59.138;37.926;2023-05-16T06:03:42;4.22;;;2.28;;
80157;SDS011;69485;59.138;37.926;2023-05-16T06:06:14;3.35;;;1.02;;
80157;SDS011;69485;59.138;37.926;2023-05-16T06:08:45;3.47;;;1.42;;
80157;SDS011;69485;59.138;37.926;2023-05-16T06:11:17;3.25;;;1.00;;
80157;SDS011;69485;59.138;37.926;2023-05-16T06:13:48;2.75;;;1.15;;
80157;SDS011;69485;59.138;37.926;2023-05-16T06:16:22;2.58;;;1.10;;
80157;SDS011;69485;59.138;37.926;2023-05-16T06:18:53;3.55;;;0.90;;
80157;SDS011;69485;59.138;37.926;2023-05-16T06:21:24;2.20;;;1.00;;
80157;SDS011;69485;59.138;37.926;2023-05-16T06:23:55;1.20;;;0.85;;
80157;SDS011;69485;59.138;37.926;2023-05-16T06:26:26;1.83;;;0.95;;
80157;SDS011;69485;59.138;37.926;2023-05-16T06:28:57;0.60;;;0.60;;
80157;SDS011;69485;59.138;37.926;2023-05-16T06:31:28;3.20;;;0.85;;
80157;SDS011;69485;59.138;37.926;2023-05-16T06:33:59;1.42;;;0.93;;
80157;SDS011;69485;59.138;37.926;2023-05-16T06:36:29;1.55;;;0.90;;
80157;SDS011;69485;59.138;37.926;2023-05-16T06:39:00;5.13;;;1.38;;
80157;SDS011;69485;59.138;37.926;2023-05-16T06:41:31;1.73;;;0.70;;
80157;SDS011;69485;59.138;37.926;2023-05-16T06:44:02;2.08;;;1.10;;
80157;SDS011;69485;59.138;37.926;2023-05-16T06:46:35;1.55;;;0.80;;
80157;SDS011;69485;59.138;37.926;2023-05-16T06:49:06;1.10;;;0.90;;
80157;SDS011;69485;59.138;37.926;2023-05-16T06:51:38;0.80;;;0.80;;
80157;SDS011;69485;59.138;37.926;2023-05-16T06:54:11;1.75;;;0.90;;
80157;SDS011;69485;59.138;37.926;2023-05-16T06:56:41;2.05;;;0.90;;
80157;SDS011;69485;59.138;37.926;2023-05-16T06:59:12;2.13;;;0.70;;
80157;SDS011;69485;59.138;37.926;2023-05-16T07:01:43;1.00;;;0.70;;
80157;SDS011;69485;59.138;37.926;2023-05-16T07:04:15;0.95;;;0.70;;
80157;SDS011;69485;59.138;37.926;2023-05-16T07:06:46;1.67;;;0.75;;
80157;SDS011;69485;59.138;37.926;2023-05-16T07:09:17;2.35;;;0.90;;
80157;SDS011;69485;59.138;37.926;2023-05-16T07:11:47;0.85;;;0.73;;
80157;SDS011;69485;59.138;37.926;2023-05-16T07:14:19;1.50;;;0.85;;
80157;SDS011;69485;59.138;37.926;2023-05-16T07:16:50;1.50;;;0.60;;
80157;SDS011;69485;59.138;37.926;2023-05-16T07:19:21;0.98;;;0.70;;
80157;SDS011;69485;59.138;37.926;2023-05-16T07:21:52;2.08;;;0.82;;
80157;SDS011;69485;59.138;37.926;2023-05-16T07:24:23;0.75;;;0.70;;
80157;SDS011;69485;59.138;37.926;2023-05-16T07:26:54;3.30;;;0.85;;
80157;SDS011;69485;59.138;37.926;2023-05-16T07:29:25;2.00;;;1.10;;
80157;SDS011;69485;59.138;37.926;2023-05-16T07:31:56;1.23;;;0.70;;
80157;SDS011;69485;59.138;37.926;2023-05-16T07:34:27;2.35;;;0.57;;
80157;SDS011;69485;59.138;37.926;2023-05-16T07:36:57;2.10;;;0.75;;
80157;SDS011;69485;59.138;37.926;2023-05-16T07:39:28;2.65;;;0.73;;
80157;SDS011;69485;59.138;37.926;2023-05-16T07:41:59;1.13;;;0.80;;
80157;SDS011;69485;59.138;37.926;2023-05-16T07:44:30;0.82;;;0.70;;
80157;SDS011;69485;59.138;37.926;2023-05-16T07:47:01;0.95;;;0.60;;
80157;SDS011;69485;59.138;37.926;2023-05-16T07:49:31;1.20;;;0.88;;
80157;SDS011;69485;59.138;37.926;2023-05-16T07:52:02;2.20;;;0.70;;
80157;SDS011;69485;59.138;37.926;2023-05-16T07:54:34;1.15;;;0.70;;
80157;SDS011;69485;59.138;37.926;2023-05-16T07:57:05;0.88;;;0.60;;
80157;SDS011;69485;59.138;37.926;2023-05-16T07:59:37;1.33;;;0.63;;
80157;SDS011;69485;59.138;37.926;2023-05-16T08:02:07;1.00;;;0.60;;
80157;SDS011;69485;59.138;37.926;2023-05-16T08:04:38;1.13;;;0.70;;
80157;SDS011;69485;59.138;37.926;2023-05-16T08:07:09;2.25;;;0.75;;
80157;SDS011;69485;59.138;37.926;2023-05-16T08:09:40;1.08;;;0.70;;
80157;SDS011;69485;59.138;37.926;2023-05-16T08:12:11;1.15;;;0.63;;
80157;SDS011;69485;59.138;37.926;2023-05-16T08:14:41;2.28;;;0.90;;
80157;SDS011;69485;59.138;37.926;2023-05-16T08:17:12;3.65;;;1.05;;
80157;SDS011;69485;59.138;37.926;2023-05-16T08:19:43;3.92;;;0.93;;
80157;SDS011;69485;59.138;37.926;2023-05-16T08:22:14;1.10;;;0.70;;
80157;SDS011;69485;59.138;37.926;2023-05-16T08:24:45;3.90;;;0.80;;
80157;SDS011;69485;59.138;37.926;2023-05-16T08:27:16;0.90;;;0.73;;
80157;SDS011;69485;59.138;37.926;2023-05-16T08:29:47;1.10;;;0.70;;
80157;SDS011;69485;59.138;37.926;2023-05-16T08:32:18;1.67;;;0.55;;
80157;SDS011;69485;59.138;37.926;2023-05-16T08:34:49;1.45;;;0.70;;
80157;SDS011;69485;59.138;37.926;2023-05-16T08:37:20;1.45;;;0.60;;
80157;SDS011;69485;59.138;37.926;2023-05-16T08:39:51;1.20;;;0.73;;
80157;SDS011;69485;59.138;37.926;2023-05-16T08:42:22;0.73;;;0.70;;
80157;SDS011;69485;59.138;37.926;2023-05-16T08:44:53;0.85;;;0.63;;
80157;SDS011;69485;59.138;37.926;2023-05-16T08:47:25;1.20;;;0.70;;
80157;SDS011;69485;59.138;37.926;2023-05-16T08:49:57;0.93;;;0.60;;
80157;SDS011;69485;59.138;37.926;2023-05-16T08:52:29;3.75;;;1.00;;
80157;SDS011;69485;59.138;37.926;2023-05-16T08:55:01;0.80;;;0.60;;
80157;SDS011;69485;59.138;37.926;2023-05-16T08:57:38;1.35;;;0.70;;
80157;SDS011;69485;59.138;37.926;2023-05-16T09:00:09;1.67;;;0.60;;
80157;SDS011;69485;59.138;37.926;2023-05-16T09:02:43;0.82;;;0.60;;
80157;SDS011;69485;59.138;37.926;2023-05-16T09:05:16;1.00;;;0.70;;
80157;SDS011;69485;59.138;37.926;2023-05-16T09:07:47;1.20;;;0.50;;
80157;SDS011;69485;59.138;37.926;2023-05-16T09:10:18;4.22;;;0.70;;
80157;SDS011;69485;59.138;37.926;2023-05-16T09:12:49;1.00;;;0.70;;
80157;SDS011;69485;59.138;37.926;2023-05-16T09:15:20;1.58;;;0.68;;
80157;SDS011;69485;59.138;37.926;2023-05-16T09:17:51;2.92;;;0.70;;
80157;SDS011;69485;59.138;37.926;2023-05-16T09:20:22;3.65;;;0.75;;
80157;SDS011;69485;59.138;37.926;2023-05-16T09:22:53;1.77;;;0.68;;
80157;SDS011;69485;59.138;37.926;2023-05-16T09:25:26;2.05;;;0.77;;
80157;SDS011;69485;59.138;37.926;2023-05-16T09:27:58;1.95;;;0.75;;
80157;SDS011;69485;59.138;37.926;2023-05-16T09:30:30;0.57;;;0.57;;
80157;SDS011;69485;59.138;37.926;2023-05-16T09:33:02;1.80;;;0.73;;
80157;SDS011;69485;59.138;37.926;2023-05-16T09:35:36;0.75;;;0.57;;
80157;SDS011;69485;59.138;37.926;2023-05-16T09:38:12;1.58;;;0.70;;
80157;SDS011;69485;59.138;37.926;2023-05-16T09:40:44;1.20;;;0.50;;
80157;SDS011;69485;59.138;37.926;2023-05-16T09:43:16;2.08;;;0.70;;
80157;SDS011;69485;59.138;37.926;2023-05-16T09:45:48;2.60;;;0.70;;
80157;SDS011;69485;59.138;37.926;2023-05-16T09:48:19;5.65;;;0.80;;
80157;SDS011;69485;59.138;37.926;2023-05-16T09:50:51;1.58;;;0.55;;
80157;SDS011;69485;59.138;37.926;2023-05-16T09:53:26;0.90;;;0.60;;
80157;SDS011;69485;59.138;37.926;2023-05-16T09:56:05;1.25;;;0.75;;
80157;SDS011;69485;59.138;37.926;2023-05-16T09:58:38;0.73;;;0.60;;
80157;SDS011;69485;59.138;37.926;2023-05-16T10:01:09;1.20;;;0.80;;
80157;SDS011;69485;59.138;37.926;2023-05-16T10:03:41;1.55;;;0.80;;
80157;SDS011;69485;59.138;37.926;2023-05-16T10:06:12;0.93;;;0.60;;
80157;SDS011;69485;59.138;37.926;2023-05-16T10:08:44;3.60;;;1.20;;
80157;SDS011;69485;59.138;37.926;2023-05-16T10:11:15;0.68;;;0.52;;
80157;SDS011;69485;59.138;37.926;2023-05-16T10:13:46;1.15;;;0.80;;
80157;SDS011;69485;59.138;37.926;2023-05-16T10:16:23;0.80;;;0.80;;
80157;SDS011;69485;59.138;37.926;2023-05-16T10:18:54;2.08;;;0.60;;
80157;SDS011;69485;59.138;37.926;2023-05-16T10:21:25;0.65;;;0.47;;
80157;SDS011;69485;59.138;37.926;2023-05-16T10:24:00;1.20;;;0.70;;
80157;SDS011;69485;59.138;37.926;2023-05-16T10:26:33;0.63;;;0.55;;
80157;SDS011;69485;59.138;37.926;2023-05-16T10:29:04;2.30;;;0.80;;
80157;SDS011;69485;59.138;37.926;2023-05-16T10:31:37;1.20;;;0.60;;
80157;SDS011;69485;59.138;37.926;2023-05-16T10:34:08;0.75;;;0.60;;
80157;SDS011;69485;59.138;37.926;2023-05-16T10:36:39;2.03;;;0.75;;
80157;SDS011;69485;59.138;37.926;2023-05-16T10:39:10;2.08;;;0.63;;
80157;SDS011;69485;59.138;37.926;2023-05-16T10:41:42;1.10;;;0.75;;
80157;SDS011;69485;59.138;37.926;2023-05-16T10:44:13;1.48;;;0.60;;
80157;SDS011;69485;59.138;37.926;2023-05-16T10:46:48;2.58;;;0.75;;
80157;SDS011;69485;59.138;37.926;2023-05-16T10:49:22;1.60;;;0.70;;
80157;SDS011;69485;59.138;37.926;2023-05-16T10:52:04;1.33;;;0.73;;
80157;SDS011;69485;59.138;37.926;2023-05-16T10:54:36;2.53;;;0.80;;
80157;SDS011;69485;59.138;37.926;2023-05-16T10:57:17;2.95;;;0.80;;
80157;SDS011;69485;59.138;37.926;2023-05-16T10:59:50;1.40;;;0.60;;
80157;SDS011;69485;59.138;37.926;2023-05-16T11:04:56;0.63;;;0.50;;
80157;SDS011;69485;59.138;37.926;2023-05-16T11:07:30;1.77;;;0.60;;
80157;SDS011;69485;59.138;37.926;2023-05-16T11:10:08;1.85;;;0.70;;
80157;SDS011;69485;59.138;37.926;2023-05-16T11:15:17;2.35;;;0.60;;
80157;SDS011;69485;59.138;37.926;2023-05-16T11:17:49;1.40;;;0.70;;
80157;SDS011;69485;59.138;37.926;2023-05-16T11:20:24;1.45;;;0.57;;
80157;SDS011;69485;59.138;37.926;2023-05-16T11:25:47;0.93;;;0.60;;
80157;SDS011;69485;59.138;37.926;2023-05-16T11:28:20;3.17;;;0.50;;
80157;SDS011;69485;59.138;37.926;2023-05-16T11:33:25;1.63;;;1.33;;
80157;SDS011;69485;59.138;37.926;2023-05-16T11:36:03;1.35;;;0.80;;
80157;SDS011;69485;59.138;37.926;2023-05-16T11:38:35;2.22;;;0.60;;
80157;SDS011;69485;59.138;37.926;2023-05-16T11:41:07;2.58;;;0.60;;
80157;SDS011;69485;59.138;37.926;2023-05-16T11:43:42;3.00;;;0.73;;
80157;SDS011;69485;59.138;37.926;2023-05-16T11:46:14;5.20;;;2.15;;
80157;SDS011;69485;59.138;37.926;2023-05-16T11:48:46;1.33;;;0.60;;
80157;SDS011;69485;59.138;37.926;2023-05-16T11:51:17;2.95;;;0.90;;
80157;SDS011;69485;59.138;37.926;2023-05-16T11:53:50;3.55;;;0.85;;
80157;SDS011;69485;59.138;37.926;2023-05-16T11:56:20;1.77;;;0.75;;
80157;SDS011;69485;59.138;37.926;2023-05-16T11:58:53;5.25;;;1.00;;
80157;SDS011;69485;59.138;37.926;2023-05-16T12:01:24;3.40;;;0.82;;
80157;SDS011;69485;59.138;37.926;2023-05-16T12:06:27;3.40;;;1.02;;
80157;SDS011;69485;59.138;37.926;2023-05-16T12:09:00;7.63;;;1.13;;
80157;SDS011;69485;59.138;37.926;2023-05-16T12:11:40;2.00;;;0.80;;
80157;SDS011;69485;59.138;37.926;2023-05-16T12:14:12;5.68;;;0.98;;
80157;SDS011;69485;59.138;37.926;2023-05-16T12:16:43;2.17;;;1.35;;
80157;SDS011;69485;59.138;37.926;2023-05-16T12:19:16;2.22;;;1.10;;
80157;SDS011;69485;59.138;37.926;2023-05-16T12:21:47;2.15;;;1.13;;
80157;SDS011;69485;59.138;37.926;2023-05-16T12:24:17;2.47;;;1.20;;
80157;SDS011;69485;59.138;37.926;2023-05-16T12:26:48;5.18;;;1.30;;
80157;SDS011;69485;59.138;37.926;2023-05-16T12:29:23;2.38;;;1.25;;
80157;SDS011;69485;59.138;37.926;2023-05-16T12:31:56;1.70;;;1.38;;
80157;SDS011;69485;59.138;37.926;2023-05-16T12:34:28;7.13;;;1.52;;
80157;SDS011;69485;59.138;37.926;2023-05-16T12:37:00;3.00;;;1.45;;
80157;SDS011;69485;59.138;37.926;2023-05-16T12:42:05;1.52;;;1.40;;
80157;SDS011;69485;59.138;37.926;2023-05-16T12:44:37;4.45;;;1.98;;
80157;SDS011;69485;59.138;37.926;2023-05-16T12:47:11;5.72;;;2.38;;
80157;SDS011;69485;59.138;37.926;2023-05-16T12:49:43;2.72;;;2.15;;
80157;SDS011;69485;59.138;37.926;2023-05-16T12:54:46;4.18;;;3.88;;
80157;SDS011;69485;59.138;37.926;2023-05-16T12:57:17;4.82;;;2.15;;
80157;SDS011;69485;59.138;37.926;2023-05-16T12:59:49;2.25;;;2.15;;
80157;SDS011;69485;59.138;37.926;2023-05-16T13:02:20;6.40;;;2.47;;
80157;SDS011;69485;59.138;37.926;2023-05-16T13:04:52;3.58;;;2.45;;
80157;SDS011;69485;59.138;37.926;2023-05-16T13:07:23;2.90;;;2.50;;
80157;SDS011;69485;59.138;37.926;2023-05-16T13:09:54;3.35;;;2.65;;
80157;SDS011;69485;59.138;37.926;2023-05-16T13:12:24;3.22;;;2.53;;
80157;SDS011;69485;59.138;37.926;2023-05-16T13:14:56;3.85;;;3.47;;
80157;SDS011;69485;59.138;37.926;2023-05-16T13:17:27;3.30;;;3.10;;
80157;SDS011;69485;59.138;37.926;2023-05-16T13:20:00;3.40;;;3.13;;
80157;SDS011;69485;59.138;37.926;2023-05-16T13:22:33;4.15;;;3.25;;
80157;SDS011;69485;59.138;37.926;2023-05-16T13:25:04;3.25;;;3.03;;
80157;SDS011;69485;59.138;37.926;2023-05-16T13:27:36;4.97;;;3.83;;
80157;SDS011;69485;59.138;37.926;2023-05-16T13:30:07;5.68;;;3.92;;
80157;SDS011;69485;59.138;37.926;2023-05-16T13:32:39;4.38;;;3.25;;
80157;SDS011;69485;59.138;37.926;2023-05-16T13:35:10;5.50;;;5.10;;
80157;SDS011;69485;59.138;37.926;2023-05-16T13:37:41;6.53;;;3.83;;
80157;SDS011;69485;59.138;37.926;2023-05-16T13:40:12;4.15;;;3.75;;
80157;SDS011;69485;59.138;37.926;2023-05-16T13:42:43;4.78;;;3.70;;
80157;SDS011;69485;59.138;37.926;2023-05-16T13:45:14;9.02;;;8.52;;
80157;SDS011;69485;59.138;37.926;2023-05-16T13:47:45;9.65;;;3.28;;
80157;SDS011;69485;59.138;37.926;2023-05-16T13:50:16;3.78;;;3.35;;
80157;SDS011;69485;59.138;37.926;2023-05-16T13:52:48;5.03;;;4.72;;
80157;SDS011;69485;59.138;37.926;2023-05-16T13:55:19;4.70;;;4.35;;
80157;SDS011;69485;59.138;37.926;2023-05-16T13:57:50;3.83;;;3.47;;
80157;SDS011;69485;59.138;37.926;2023-05-16T14:00:20;4.75;;;4.35;;
80157;SDS011;69485;59.138;37.926;2023-05-16T14:02:51;5.43;;;4.97;;
80157;SDS011;69485;59.138;37.926;2023-05-16T14:05:22;4.30;;;3.25;;
80157;SDS011;69485;59.138;37.926;2023-05-16T14:07:53;8.93;;;5.25;;
80157;SDS011;69485;59.138;37.926;2023-05-16T14:10:24;4.80;;;4.45;;
80157;SDS011;69485;59.138;37.926;2023-05-16T14:12:55;5.32;;;4.70;;
80157;SDS011;69485;59.138;37.926;2023-05-16T14:15:26;4.38;;;3.88;;
80157;SDS011;69485;59.138;37.926;2023-05-16T14:17:57;3.65;;;3.35;;
80157;SDS011;69485;59.138;37.926;2023-05-16T14:20:29;3.53;;;3.28;;
80157;SDS011;69485;59.138;37.926;2023-05-16T14:23:01;8.15;;;7.15;;
80157;SDS011;69485;59.138;37.926;2023-05-16T14:25:31;4.75;;;3.63;;
80157;SDS011;69485;59.138;37.926;2023-05-16T14:28:02;4.38;;;2.97;;
80157;SDS011;69485;59.138;37.926;2023-05-16T14:30:33;4.78;;;3.42;;
80157;SDS011;69485;59.138;37.926;2023-05-16T14:33:04;6.82;;;3.38;;
80157;SDS011;69485;59.138;37.926;2023-05-16T14:35:36;5.47;;;3.28;;
80157;SDS011;69485;59.138;37.926;2023-05-16T14:38:10;4.35;;;2.75;;
80157;SDS011;69485;59.138;37.926;2023-05-16T14:40:41;3.63;;;3.30;;
80157;SDS011;69485;59.138;37.926;2023-05-16T14:43:12;3.78;;;3.58;;
80157;SDS011;69485;59.138;37.926;2023-05-16T14:45:43;2.63;;;2.42;;
80157;SDS011;69485;59.138;37.926;2023-05-16T14:48:14;6.30;;;2.85;;
80157;SDS011;69485;59.138;37.926;2023-05-16T14:50:46;2.53;;;2.42;;
80157;SDS011;69485;59.138;37.926;2023-05-16T14:53:17;6.40;;;6.03;;
80157;SDS011;69485;59.138;37.926;2023-05-16T14:55:48;2.75;;;2.55;;
80157;SDS011;69485;59.138;37.926;2023-05-16T14:58:19;4.20;;;3.95;;
80157;SDS011;69485;59.138;37.926;2023-05-16T15:00:50;3.80;;;3.40;;
80157;SDS011;69485;59.138;37.926;2023-05-16T15:03:21;3.95;;;3.65;;
80157;SDS011;69485;59.138;37.926;2023-05-16T15:05:52;5.25;;;4.50;;
80157;SDS011;69485;59.138;37.926;2023-05-16T15:08:24;5.90;;;5.32;;
80157;SDS011;69485;59.138;37.926;2023-05-16T15:10:55;2.90;;;2.45;;
80157;SDS011;69485;59.138;37.926;2023-05-16T15:13:26;3.03;;;2.80;;
80157;SDS011;69485;59.138;37.926;2023-05-16T15:15:57;2.75;;;2.33;;
80157;SDS011;69485;59.138;37.926;2023-05-16T15:18:27;2.60;;;2.38;;
80157;SDS011;69485;59.138;37.926;2023-05-16T15:20:58;3.45;;;2.88;;
80157;SDS011;69485;59.138;37.926;2023-05-16T15:23:29;5.07;;;2.45;;
80157;SDS011;69485;59.138;37.926;2023-05-16T15:26:00;5.75;;;3.15;;